Time;durP1;ratioP1;P1;durP2;ratioP2;P2;SDS_P1;SDS_P2;PMS_P1;PMS_P2;Temp;Humidity;BMP_temperature;BMP_pressure;BME280_temperature;BME280_humidity;BME280_pressure;Samples;Min_cycle;Max_cycle;Signal;HPM_P1;HPM_P2
2022/10/18 00:02:24;;;;;;;;;12.00;12.00;;;;;-147.17;100.00;-15917.19;5023242;27;52637;-47
2022/10/18 00:04:49;;;;;;;;;11.33;11.33;;;;;-147.17;100.00;-15917.19;5054298;27;51127;-47
2022/10/18 00:07:15;;;;;;;;;11.00;11.00;;;;;-147.17;100.00;-15917.19;5068759;27;53633;-48
2022/10/18 00:09:40;;;;;;;;;11.00;11.00;;;;;-147.17;100.00;-15917.19;5047421;27;59540;-46
2022/10/18 00:12:07;;;;;;;;;13.00;12.00;;;;;-147.17;100.00;-15917.19;5074950;27;51214;-49
2022/10/18 00:14:32;;;;;;;;;11.00;11.00;;;;;-147.17;100.00;-15917.19;5052678;27;51055;-54
2022/10/18 00:16:57;;;;;;;;;10.00;9.67;;;;;-147.17;100.00;-15917.19;5042171;27;51132;-48
2022/10/18 00:19:23;;;;;;;;;15.67;14.00;;;;;-147.17;100.00;-15917.19;5033628;27;51397;-47
2022/10/18 00:21:51;;;;;;;;;13.67;13.67;;;;;-147.17;100.00;-15917.19;5030294;27;51180;-47
2022/10/18 00:24:16;;;;;;;;;13.00;11.00;;;;;-147.17;100.00;-15917.19;5026852;27;51331;-47
2022/10/18 00:26:42;;;;;;;;;12.67;12.00;;;;;-147.17;100.00;-15917.19;5075845;27;52488;-48
2022/10/18 00:29:13;;;;;;;;;12.67;12.67;;;;;-147.17;100.00;-15917.19;5031246;27;51038;-48
2022/10/18 00:31:38;;;;;;;;;17.33;15.33;;;;;-147.17;100.00;-15917.19;5035156;27;51144;-48
2022/10/18 00:34:10;;;;;;;;;13.00;13.00;;;;;-147.17;100.00;-15917.19;5036673;27;51281;-47
2022/10/18 00:36:35;;;;;;;;;12.67;12.67;;;;;-147.17;100.00;-15917.19;5039873;27;51680;-47
2022/10/18 00:39:02;;;;;;;;;14.33;14.00;;;;;-147.17;100.00;-15917.19;5055046;27;51094;-48
2022/10/18 00:41:30;;;;;;;;;14.00;13.00;;;;;-147.17;100.00;-15917.19;5040890;27;51045;-48
2022/10/18 00:43:57;;;;;;;;;13.67;12.33;;;;;-147.17;100.00;-15917.19;5027421;27;51337;-47
2022/10/18 00:46:25;;;;;;;;;12.67;12.33;;;;;-147.17;100.00;-15917.19;5025397;27;51273;-48
2022/10/18 00:48:51;;;;;;;;;14.00;13.67;;;;;-147.17;100.00;-15917.19;5041004;27;51290;-48
2022/10/18 00:51:19;;;;;;;;;12.00;12.00;;;;;-147.17;100.00;-15917.19;5030053;27;51257;-50
2022/10/18 00:53:45;;;;;;;;;13.67;13.67;;;;;-147.17;100.00;-15917.19;5036742;27;51434;-47
2022/10/18 00:56:12;;;;;;;;;13.67;13.67;;;;;-147.17;100.00;-15917.19;5045236;27;51793;-49
2022/10/18 00:58:38;;;;;;;;;13.33;13.33;;;;;-147.17;100.00;-15917.19;5005687;27;51190;-49
2022/10/18 01:01:04;;;;;;;;;15.67;15.00;;;;;-147.17;100.00;-15917.19;5005669;27;51354;-49
2022/10/18 01:03:30;;;;;;;;;15.33;14.67;;;;;-147.17;100.00;-15917.19;5029706;27;51392;-51
2022/10/18 01:05:55;;;;;;;;;15.67;14.67;;;;;-147.17;100.00;-15917.19;5024444;27;51235;-47
2022/10/18 01:08:23;;;;;;;;;12.67;12.33;;;;;-147.17;100.00;-15917.19;5002420;27;51194;-48
2022/10/18 01:10:57;;;;;;;;;13.00;13.00;;;;;-147.17;100.00;-15917.19;4998449;27;51556;-48
2022/10/18 01:13:40;;;;;;;;;13.67;13.67;;;;;-147.17;100.00;-15917.19;5004376;27;51716;-51
2022/10/18 01:16:17;;;;;;;;;16.00;14.67;;;;;-147.17;100.00;-15917.19;5039566;27;51884;-50
2022/10/18 01:18:48;;;;;;;;;15.00;15.00;;;;;-147.17;100.00;-15917.19;5002236;27;51169;-48
2022/10/18 01:21:42;;;;;;;;;15.33;15.33;;;;;-147.17;100.00;-15917.19;5031601;27;51078;-48
2022/10/18 01:24:55;;;;;;;;;16.67;16.00;;;;;-147.17;100.00;-15917.19;4994824;27;51531;-47
2022/10/18 01:27:45;;;;;;;;;18.00;17.33;;;;;-147.17;100.00;-15917.19;5012215;27;51167;-48
2022/10/18 01:30:22;;;;;;;;;19.00;18.67;;;;;-147.17;100.00;-15917.19;5000886;27;52848;-49
2022/10/18 01:32:54;;;;;;;;;17.00;17.00;;;;;-147.17;100.00;-15917.19;4997852;27;51121;-48
2022/10/18 01:35:32;;;;;;;;;14.33;14.33;;;;;-147.17;100.00;-15917.19;5009101;27;51701;-48
2022/10/18 01:38:02;;;;;;;;;20.33;19.67;;;;;-147.17;100.00;-15917.19;4994113;27;52702;-48
2022/10/18 01:40:29;;;;;;;;;18.75;18.25;;;;;-147.17;100.00;-15917.19;5009038;27;51193;-50
2022/10/18 01:42:54;;;;;;;;;17.50;16.00;;;;;-147.17;100.00;-15917.19;5003993;27;51105;-49
2022/10/18 01:45:22;;;;;;;;;16.67;16.67;;;;;-147.17;100.00;-15917.19;5001786;28;51237;-48
2022/10/18 01:47:48;;;;;;;;;15.25;15.25;;;;;-147.17;100.00;-15917.19;4999273;27;51717;-49
2022/10/18 01:50:13;;;;;;;;;17.00;16.00;;;;;-147.17;100.00;-15917.19;4999058;27;51217;-49
2022/10/18 01:52:49;;;;;;;;;15.00;15.00;;;;;-147.17;100.00;-15917.19;5007624;27;51144;-48
2022/10/18 01:55:15;;;;;;;;;14.00;14.00;;;;;-147.17;100.00;-15917.19;4998538;27;50864;-48
2022/10/18 01:57:49;;;;;;;;;17.00;16.00;;;;;-147.17;100.00;-15917.19;4998384;27;52007;-49
2022/10/18 02:00:25;;;;;;;;;17.25;16.75;;;;;-147.17;100.00;-15917.19;5000548;27;51070;-47
2022/10/18 02:02:50;;;;;;;;;23.00;21.25;;;;;-147.17;100.00;-15917.19;5064783;27;51021;-48
2022/10/18 02:05:27;;;;;;;;;18.00;17.75;;;;;-147.17;100.00;-15917.19;4997619;27;51115;-47
2022/10/18 02:08:17;;;;;;;;;16.75;16.50;;;;;-147.17;100.00;-15917.19;5006453;27;52287;-47
2022/10/18 02:10:57;;;;;;;;;18.25;18.00;;;;;-147.17;100.00;-15917.19;5003130;27;51006;-47
2022/10/18 02:13:26;;;;;;;;;18.00;16.67;;;;;-147.17;100.00;-15917.19;5004650;27;51141;-48
2022/10/18 02:15:57;;;;;;;;;18.00;17.00;;;;;-147.17;100.00;-15917.19;5008884;28;51083;-46
2022/10/18 02:18:31;;;;;;;;;16.67;16.33;;;;;-147.17;100.00;-15917.19;5008408;27;52480;-49
2022/10/18 02:20:57;;;;;;;;;22.75;20.75;;;;;-147.17;100.00;-15917.19;4999399;27;51327;-48
2022/10/18 02:23:24;;;;;;;;;16.25;16.25;;;;;-147.17;100.00;-15917.19;5005026;27;51192;-47
2022/10/18 02:25:51;;;;;;;;;18.00;17.00;;;;;-147.17;100.00;-15917.19;5005454;27;51201;-48
2022/10/18 02:28:17;;;;;;;;;16.67;16.33;;;;;-147.17;100.00;-15917.19;5004496;27;51913;-47
2022/10/18 02:31:06;;;;;;;;;22.00;18.00;;;;;-147.17;100.00;-15917.19;4999625;27;51142;-47
2022/10/18 02:33:39;;;;;;;;;18.33;17.67;;;;;-147.17;100.00;-15917.19;5004259;27;51153;-47
2022/10/18 02:36:28;;;;;;;;;20.25;20.00;;;;;-147.17;100.00;-15917.19;5005532;27;51149;-46
2022/10/18 02:39:01;;;;;;;;;19.75;19.50;;;;;-147.17;100.00;-15917.19;4996256;27;51021;-48
2022/10/18 02:41:27;;;;;;;;;15.67;15.67;;;;;-147.17;100.00;-15917.19;5002255;27;51057;-51
2022/10/18 02:43:53;;;;;;;;;19.67;19.67;;;;;-147.17;100.00;-15917.19;5001929;27;51151;-48
2022/10/18 02:46:19;;;;;;;;;18.75;16.75;;;;;-147.17;100.00;-15917.19;5001858;27;52592;-50
2022/10/18 02:48:45;;;;;;;;;18.50;17.75;;;;;-147.17;100.00;-15917.19;5003866;27;51314;-49
2022/10/18 02:51:10;;;;;;;;;18.75;18.25;;;;;-147.17;100.00;-15917.19;5003945;27;51168;-47
2022/10/18 02:53:35;;;;;;;;;17.00;17.00;;;;;-147.17;100.00;-15917.19;5006158;27;51274;-47
2022/10/18 02:56:02;;;;;;;;;22.00;21.25;;;;;-147.17;100.00;-15917.19;5002129;27;51031;-47
2022/10/18 02:58:27;;;;;;;;;21.00;20.75;;;;;-147.17;100.00;-15917.19;5019788;27;52290;-47
2022/10/18 03:00:53;;;;;;;;;20.25;18.75;;;;;-147.17;100.00;-15917.19;5001800;27;51159;-46
2022/10/18 03:03:18;;;;;;;;;18.75;18.00;;;;;-147.17;100.00;-15917.19;5000408;27;51059;-47
2022/10/18 03:05:43;;;;;;;;;20.00;18.75;;;;;-147.17;100.00;-15917.19;5003616;27;51079;-47
2022/10/18 03:08:09;;;;;;;;;20.75;18.75;;;;;-147.17;100.00;-15917.19;4998730;27;51904;-48
2022/10/18 03:10:34;;;;;;;;;20.25;19.25;;;;;-147.17;100.00;-15917.19;5006137;27;51826;-47
2022/10/18 03:12:59;;;;;;;;;18.75;18.00;;;;;-147.17;100.00;-15917.19;5005271;27;51214;-47
2022/10/18 03:15:25;;;;;;;;;19.50;19.00;;;;;-147.17;100.00;-15917.19;5006509;27;51789;-46
2022/10/18 03:17:50;;;;;;;;;18.00;17.75;;;;;-147.17;100.00;-15917.19;5006706;27;53192;-47
2022/10/18 03:20:15;;;;;;;;;18.25;17.25;;;;;-147.17;100.00;-15917.19;5006582;27;51155;-47
2022/10/18 03:22:41;;;;;;;;;18.75;18.75;;;;;-147.17;100.00;-15917.19;5000708;27;51198;-47
2022/10/18 03:25:06;;;;;;;;;16.00;16.00;;;;;-147.17;100.00;-15917.19;5002085;27;51014;-48
2022/10/18 03:27:32;;;;;;;;;18.00;18.00;;;;;-147.17;100.00;-15917.19;5006374;27;51152;-48
2022/10/18 03:29:58;;;;;;;;;16.33;16.33;;;;;-147.17;100.00;-15917.19;4995078;27;50988;-50
2022/10/18 03:32:23;;;;;;;;;18.00;17.00;;;;;-147.17;100.00;-15917.19;4997231;27;51407;-50
2022/10/18 03:34:48;;;;;;;;;15.50;15.00;;;;;-147.17;100.00;-15917.19;4996368;27;51142;-49
2022/10/18 03:37:14;;;;;;;;;17.00;16.33;;;;;-147.17;100.00;-15917.19;5003130;27;52240;-47
2022/10/18 03:39:39;;;;;;;;;24.00;23.00;;;;;-147.17;100.00;-15917.19;5005309;28;51025;-49
2022/10/18 03:42:04;;;;;;;;;24.25;20.50;;;;;-147.17;100.00;-15917.19;5006904;27;54268;-48
2022/10/18 03:44:29;;;;;;;;;23.25;22.25;;;;;-147.17;100.00;-15917.19;4997709;27;51446;-49
2022/10/18 03:46:55;;;;;;;;;23.25;22.00;;;;;-147.17;100.00;-15917.19;4995534;27;57001;-48
2022/10/18 03:49:20;;;;;;;;;24.25;23.00;;;;;-147.17;100.00;-15917.19;4991464;27;51180;-48
2022/10/18 03:51:45;;;;;;;;;19.25;17.25;;;;;-147.17;100.00;-15917.19;4994643;27;51329;-50
2022/10/18 03:54:11;;;;;;;;;19.75;19.00;;;;;-147.17;100.00;-15917.19;4998627;27;51639;-49
2022/10/18 03:56:36;;;;;;;;;22.00;20.00;;;;;-147.17;100.00;-15917.19;4990128;27;60708;-48
2022/10/18 03:59:03;;;;;;;;;22.75;21.25;;;;;-147.17;100.00;-15917.19;5003599;27;51139;-50
2022/10/18 04:01:28;;;;;;;;;20.75;20.75;;;;;-147.17;100.00;-15917.19;5003823;27;51152;-49
2022/10/18 04:03:54;;;;;;;;;22.25;21.50;;;;;-147.17;100.00;-15917.19;4998730;28;51246;-49
2022/10/18 04:06:19;;;;;;;;;24.75;24.00;;;;;-147.17;100.00;-15917.19;4998954;27;51879;-49
2022/10/18 04:08:44;;;;;;;;;23.00;22.00;;;;;-147.17;100.00;-15917.19;4999872;27;51296;-48
2022/10/18 04:11:10;;;;;;;;;23.00;22.00;;;;;-147.17;100.00;-15917.19;4999281;27;52963;-47
2022/10/18 04:13:36;;;;;;;;;23.67;20.67;;;;;-147.17;100.00;-15917.19;5002585;27;52515;-48
2022/10/18 04:16:01;;;;;;;;;25.25;24.00;;;;;-147.17;100.00;-15917.19;5003811;28;51754;-50
2022/10/18 04:18:27;;;;;;;;;22.50;21.00;;;;;-147.17;100.00;-15917.19;5062550;27;51341;-49
2022/10/18 04:20:52;;;;;;;;;24.00;22.50;;;;;-147.17;100.00;-15917.19;5064878;27;51218;-48
2022/10/18 04:23:18;;;;;;;;;18.75;17.50;;;;;-147.17;100.00;-15917.19;4995890;27;52108;-47
2022/10/18 04:25:43;;;;;;;;;25.50;24.00;;;;;-147.17;100.00;-15917.19;5000799;27;52470;-47
2022/10/18 04:28:08;;;;;;;;;21.00;21.00;;;;;-147.17;100.00;-15917.19;5001279;27;51285;-47
2022/10/18 04:30:34;;;;;;;;;23.67;21.33;;;;;-147.17;100.00;-15917.19;5014155;27;51521;-48
2022/10/18 04:32:59;;;;;;;;;19.00;18.67;;;;;-147.17;100.00;-15917.19;5004219;27;51319;-50
2022/10/18 04:35:26;;;;;;;;;20.25;20.00;;;;;-147.17;100.00;-15917.19;5007688;27;51155;-50
2022/10/18 04:37:52;;;;;;;;;22.67;21.00;;;;;-147.17;100.00;-15917.19;5000329;27;51397;-51
2022/10/18 04:40:18;;;;;;;;;20.33;19.33;;;;;-147.17;100.00;-15917.19;4995238;27;52439;-49
2022/10/18 04:42:44;;;;;;;;;19.67;19.33;;;;;-147.17;100.00;-15917.19;5003209;28;52297;-48
2022/10/18 04:45:09;;;;;;;;;19.75;19.50;;;;;-147.17;100.00;-15917.19;5008063;28;51895;-48
2022/10/18 04:47:35;;;;;;;;;22.00;21.50;;;;;-147.17;100.00;-15917.19;5005870;27;51070;-49
2022/10/18 04:50:00;;;;;;;;;18.67;18.33;;;;;-147.17;100.00;-15917.19;4996338;27;51011;-47
2022/10/18 04:52:25;;;;;;;;;18.00;17.00;;;;;-147.17;100.00;-15917.19;5003702;27;51154;-50
2022/10/18 04:54:51;;;;;;;;;19.75;18.75;;;;;-147.17;100.00;-15917.19;4997084;27;51880;-47
2022/10/18 04:57:16;;;;;;;;;22.33;21.00;;;;;-147.17;100.00;-15917.19;5006920;27;51099;-48
2022/10/18 04:59:41;;;;;;;;;22.50;21.75;;;;;-147.17;100.00;-15917.19;4999093;27;50894;-48
2022/10/18 05:02:07;;;;;;;;;15.50;14.75;;;;;-147.17;100.00;-15917.19;5004389;27;51103;-49
2022/10/18 05:04:32;;;;;;;;;21.33;20.00;;;;;-147.17;100.00;-15917.19;4994013;27;51645;-50
2022/10/18 05:06:57;;;;;;;;;21.75;20.75;;;;;-147.17;100.00;-15917.19;5001736;27;51211;-48
2022/10/18 05:09:23;;;;;;;;;19.00;17.33;;;;;-147.17;100.00;-15917.19;4998804;27;51243;-47
2022/10/18 05:11:49;;;;;;;;;23.25;21.75;;;;;-147.17;100.00;-15917.19;5010401;27;51304;-47
2022/10/18 05:14:14;;;;;;;;;18.75;16.25;;;;;-147.17;100.00;-15917.19;5005645;27;51051;-49
2022/10/18 05:16:40;;;;;;;;;20.00;19.75;;;;;-147.17;100.00;-15917.19;5075029;27;50995;-47
2022/10/18 05:19:05;;;;;;;;;21.25;20.00;;;;;-147.17;100.00;-15917.19;5005860;27;51246;-51
2022/10/18 05:21:31;;;;;;;;;19.33;17.00;;;;;-147.17;100.00;-15917.19;4998815;27;51269;-46
2022/10/18 05:23:56;;;;;;;;;18.67;17.67;;;;;-147.17;100.00;-15917.19;5000244;27;52564;-49
2022/10/18 05:26:21;;;;;;;;;20.25;19.50;;;;;-147.17;100.00;-15886.69;5004428;27;51110;-49
2022/10/18 05:28:49;;;;;;;;;16.50;16.50;;;;;-147.17;100.00;-15855.72;4998340;27;51278;-48
2022/10/18 05:31:14;;;;;;;;;20.00;19.25;;;;;-147.17;100.00;-15838.31;5030140;27;51126;-48
2022/10/18 05:33:39;;;;;;;;;20.00;20.00;;;;;-147.17;100.00;-15917.19;5005637;28;59131;-47
2022/10/18 05:36:05;;;;;;;;;18.00;17.75;;;;;-147.17;100.00;-15884.75;5007969;28;50898;-48
2022/10/18 05:38:31;;;;;;;;;16.67;16.67;;;;;-147.17;100.00;-15791.88;5064019;27;51745;-50
2022/10/18 05:40:57;;;;;;;;;16.67;15.33;;;;;-147.17;100.00;-15724.13;5002386;27;51258;-49
2022/10/18 05:43:23;;;;;;;;;14.67;14.00;;;;;-147.17;100.00;-15606.06;5072048;27;52966;-49
2022/10/18 05:45:51;;;;;;;;;18.00;17.00;;;;;-147.17;100.00;-15528.66;5007491;28;51100;-47
2022/10/18 05:48:17;;;;;;;;;16.67;16.67;;;;;-147.17;100.00;-15364.13;5070913;27;51528;-49
2022/10/18 05:50:44;;;;;;;;;15.67;15.67;;;;;-147.17;100.00;-15273.16;5007106;28;51093;-47
2022/10/18 05:53:09;;;;;;;;;17.00;15.00;;;;;-147.17;100.00;-15261.53;5004847;27;52016;-50
2022/10/18 05:55:35;;;;;;;;;16.67;16.67;;;;;-147.17;100.00;-15232.50;5006666;27;51279;-48
2022/10/18 05:58:01;;;;;;;;;15.75;14.75;;;;;-147.17;100.00;-15228.66;5005205;27;51121;-47
2022/10/18 06:00:27;;;;;;;;;14.67;14.00;;;;;-147.17;100.00;-15203.47;4999520;27;51302;-51
2022/10/18 06:02:52;;;;;;;;;15.67;15.67;;;;;-147.17;100.00;-15131.84;5001665;28;51413;-49
2022/10/18 06:05:17;;;;;;;;;13.00;13.00;;;;;-147.17;100.00;-15133.78;5074892;27;51692;-48
2022/10/18 06:07:43;;;;;;;;;17.00;16.00;;;;;-147.17;100.00;-15168.63;5005859;28;51060;-49
2022/10/18 06:10:08;;;;;;;;;13.00;13.00;;;;;-147.17;100.00;-15189.94;5001850;28;51423;-50
2022/10/18 06:12:34;;;;;;;;;16.00;13.00;;;;;-147.17;100.00;-15234.44;5001670;27;51995;-49
2022/10/18 06:14:59;;;;;;;;;16.67;14.00;;;;;-147.17;100.00;-15215.09;5000148;27;51189;-48
2022/10/18 06:17:24;;;;;;;;;13.67;13.00;;;;;-147.17;100.00;-15257.69;5072716;27;55397;-49
2022/10/18 06:19:50;;;;;;;;;14.00;13.33;;;;;-147.17;100.00;-15398.97;5003502;28;51317;-49
2022/10/18 06:22:15;;;;;;;;;15.33;15.00;;;;;-147.17;100.00;-15468.66;5000889;27;52207;-48
2022/10/18 06:24:40;;;;;;;;;14.33;14.33;;;;;-147.17;100.00;-15482.19;5018793;27;51317;-47
2022/10/18 06:27:08;;;;;;;;;14.00;14.00;;;;;-147.17;100.00;-15517.03;5010089;27;51130;-47
2022/10/18 06:29:38;;;;;;;;;14.00;13.33;;;;;-147.17;100.00;-15582.84;5010559;27;50979;-51
2022/10/18 06:32:05;;;;;;;;;15.25;15.25;;;;;-147.17;100.00;-15623.50;5000991;27;51319;-49
2022/10/18 06:34:30;;;;;;;;;14.00;12.33;;;;;-147.17;100.00;-15644.78;5010579;27;51248;-50
2022/10/18 06:36:56;;;;;;;;;15.33;15.00;;;;;-147.17;100.00;-15668.00;5004084;27;51185;-49
2022/10/18 06:39:21;;;;;;;;;17.00;16.00;;;;;-147.17;100.00;-15757.03;5010215;27;51063;-49
2022/10/18 06:41:46;;;;;;;;;12.00;12.00;;;;;-147.17;100.00;-15757.03;5085837;27;51558;-47
2022/10/18 06:44:13;;;;;;;;;13.00;13.00;;;;;-147.17;100.00;-15784.13;5057200;27;50973;-50
2022/10/18 06:46:43;;;;;;;;;14.00;13.00;;;;;-147.17;100.00;-15818.97;5034084;27;51938;-49
2022/10/18 06:49:09;;;;;;;;;12.00;11.00;;;;;-147.17;100.00;-15880.91;5027741;27;51310;-47
2022/10/18 06:51:34;;;;;;;;;13.00;12.00;;;;;-147.17;100.00;-15917.19;5065582;27;51067;-51
2022/10/18 06:54:00;;;;;;;;;11.33;11.33;;;;;-147.17;100.00;-15917.19;5070833;27;51159;-50
2022/10/18 06:56:25;;;;;;;;;11.67;10.67;;;;;-147.17;100.00;-15917.19;5062375;27;51050;-49
2022/10/18 06:58:50;;;;;;;;;11.33;11.33;;;;;-147.17;100.00;-15917.19;5080620;27;51254;-49
2022/10/18 07:01:17;;;;;;;;;13.00;12.00;;;;;-147.17;100.00;-15917.19;5029076;27;51933;-47
2022/10/18 07:03:44;;;;;;;;;14.00;12.67;;;;;-147.17;100.00;-15917.19;5083280;27;51319;-50
2022/10/18 07:06:12;;;;;;;;;15.00;13.00;;;;;-147.17;100.00;-15917.19;5049490;27;51433;-50
2022/10/18 07:08:38;;;;;;;;;12.00;12.00;;;;;-147.17;100.00;-15917.19;5046117;27;51123;-49
2022/10/18 07:11:04;;;;;;;;;12.33;12.33;;;;;-147.17;100.00;-15917.19;5030613;27;51106;-49
2022/10/18 07:13:30;;;;;;;;;14.33;13.00;;;;;-147.17;100.00;-15917.19;5038624;27;51284;-51
2022/10/18 07:16:10;;;;;;;;;13.33;13.00;;;;;-147.17;100.00;-15917.19;5076064;27;52037;-49
2022/10/18 07:18:38;;;;;;;;;11.00;11.00;;;;;-147.17;100.00;-15917.19;5038700;27;51227;-49
2022/10/18 07:21:12;;;;;;;;;14.00;13.00;;;;;-147.17;100.00;-15917.19;5059266;27;52271;-49
2022/10/18 07:23:40;;;;;;;;;14.67;13.67;;;;;-147.17;100.00;-15917.19;5035677;27;51140;-50
2022/10/18 07:26:14;;;;;;;;;18.00;17.33;;;;;-147.17;100.00;-15917.19;5058030;27;51175;-49
2022/10/18 07:28:41;;;;;;;;;14.33;14.33;;;;;-147.17;100.00;-15917.19;5065912;27;51378;-49
2022/10/18 07:31:07;;;;;;;;;12.67;12.33;;;;;-147.17;100.00;-15917.19;5056492;27;51924;-50
2022/10/18 07:33:34;;;;;;;;;17.00;13.67;;;;;-147.17;100.00;-15917.19;5069472;27;51122;-49
2022/10/18 07:36:02;;;;;;;;;14.33;14.00;;;;;-147.17;100.00;-15917.19;5048494;27;51027;-50
2022/10/18 07:38:27;;;;;;;;;14.33;14.33;;;;;-147.17;100.00;-15917.19;5037062;27;51046;-46
2022/10/18 07:40:57;;;;;;;;;14.00;13.67;;;;;-147.17;100.00;-15917.19;5032116;27;52374;-46
2022/10/18 07:43:22;;;;;;;;;14.00;13.67;;;;;-147.17;100.00;-15917.19;5042024;27;51319;-47
2022/10/18 07:45:55;;;;;;;;;13.67;13.00;;;;;-147.17;100.00;-15917.19;5032000;27;51656;-46
2022/10/18 07:48:21;;;;;;;;;13.67;13.33;;;;;-147.17;100.00;-15917.19;5033642;27;51277;-48
2022/10/18 07:50:46;;;;;;;;;14.33;13.67;;;;;-147.17;100.00;-15917.19;5036160;27;51896;-48
2022/10/18 07:53:12;;;;;;;;;12.33;11.67;;;;;-147.17;100.00;-15917.19;5073675;27;51173;-47
2022/10/18 07:55:37;;;;;;;;;13.00;11.00;;;;;-147.17;100.00;-15917.19;5044477;27;51366;-47
2022/10/18 07:58:03;;;;;;;;;12.00;10.67;;;;;-147.17;100.00;-15917.19;5041632;27;51026;-47
2022/10/18 08:00:28;;;;;;;;;12.67;12.00;;;;;-147.17;100.00;-15917.19;5035607;27;51065;-48
2022/10/18 08:02:58;;;;;;;;;13.67;13.00;;;;;-147.17;100.00;-15917.19;5036795;27;51014;-49
2022/10/18 08:05:24;;;;;;;;;10.67;9.67;;;;;-147.17;100.00;-15917.19;5033461;27;51337;-45
2022/10/18 08:07:49;;;;;;;;;12.33;11.00;;;;;-147.17;100.00;-15917.19;5046572;27;51672;-45
2022/10/18 08:10:15;;;;;;;;;8.67;8.33;;;;;-147.17;100.00;-15917.19;5077173;27;52725;-46
2022/10/18 08:12:40;;;;;;;;;9.33;8.67;;;;;-147.17;100.00;-15917.19;5057708;27;51201;-48
2022/10/18 08:15:06;;;;;;;;;11.00;10.00;;;;;-147.17;100.00;-15917.19;5031173;27;51288;-50
2022/10/18 08:17:32;;;;;;;;;14.33;13.67;;;;;-147.17;100.00;-15917.19;5033393;27;51127;-45
2022/10/18 08:19:57;;;;;;;;;9.67;9.67;;;;;-147.17;100.00;-15917.19;5063273;27;51986;-46
2022/10/18 08:22:22;;;;;;;;;10.00;10.00;;;;;-147.17;100.00;-15917.19;5046731;27;50950;-45
2022/10/18 08:24:48;;;;;;;;;11.67;11.00;;;;;-147.17;100.00;-15917.19;5034435;27;51241;-47
2022/10/18 08:27:14;;;;;;;;;13.33;13.00;;;;;-147.17;100.00;-15917.19;5027097;27;51128;-47
2022/10/18 08:29:39;;;;;;;;;15.00;15.00;;;;;-147.17;100.00;-15917.19;5054179;27;51900;-48
2022/10/18 08:32:06;;;;;;;;;12.33;11.33;;;;;-147.17;100.00;-15917.19;5030116;27;51042;-49
2022/10/18 08:34:32;;;;;;;;;11.67;11.00;;;;;-147.17;100.00;-15917.19;5093148;27;51556;-47
2022/10/18 08:36:57;;;;;;;;;13.00;12.00;;;;;-147.17;100.00;-15917.19;5039944;27;51453;-48
2022/10/18 08:39:23;;;;;;;;;10.33;9.67;;;;;-147.17;100.00;-15917.19;5030162;27;51201;-46
2022/10/18 08:42:19;;;;;;;;;10.67;10.67;;;;;-147.17;100.00;-15917.19;5029769;27;51063;-47
2022/10/18 08:44:50;;;;;;;;;11.67;10.33;;;;;-147.17;100.00;-15917.19;5071474;27;51092;-47
2022/10/18 08:47:23;;;;;;;;;9.00;8.00;;;;;-147.17;100.00;-15917.19;5015258;27;51349;-45
2022/10/18 08:49:56;;;;;;;;;10.00;9.67;;;;;-147.17;100.00;-15917.19;5031447;27;53168;-46
2022/10/18 08:52:54;;;;;;;;;10.33;10.00;;;;;-147.17;100.00;-15917.19;5042706;27;51182;-47
2022/10/18 08:55:35;;;;;;;;;8.33;8.00;;;;;-147.17;100.00;-15917.19;5029332;27;50947;-46
2022/10/18 08:58:01;;;;;;;;;8.00;8.00;;;;;-147.17;100.00;-15917.19;5032462;27;51097;-46
2022/10/18 09:00:33;;;;;;;;;8.67;8.33;;;;;-147.17;100.00;-15917.19;5042064;27;51147;-47
2022/10/18 09:03:13;;;;;;;;;8.67;8.67;;;;;-147.17;100.00;-15917.19;5026650;27;51171;-48
2022/10/18 09:05:58;;;;;;;;;5.33;5.33;;;;;-147.17;100.00;-15917.19;5036545;27;51097;-46
2022/10/18 09:08:41;;;;;;;;;7.67;7.33;;;;;-147.17;100.00;-15917.19;5032429;27;51129;-45
2022/10/18 09:11:18;;;;;;;;;5.33;5.33;;;;;-147.17;100.00;-15917.19;5059593;27;51980;-46
2022/10/18 09:13:52;;;;;;;;;5.00;5.00;;;;;-147.17;100.00;-15917.19;5037681;27;51149;-46
2022/10/18 09:16:25;;;;;;;;;6.00;6.00;;;;;-147.17;100.00;-7980.59;5031457;27;52663;-47
2022/10/18 09:18:51;;;;;;;;;5.67;4.67;;;;;-147.17;100.00;61918.28;5044820;27;51260;-47
2022/10/18 09:21:44;;;;;;;;;7.67;7.00;;;;;-147.17;100.00;31489.13;5025047;27;51361;-46
2022/10/18 09:24:20;;;;;;;;;3.00;3.00;;;;;-147.17;100.00;18871.09;5031504;27;51256;-46
2022/10/18 09:26:48;;;;;;;;;6.00;6.00;;;;;-147.17;100.00;12716.78;5067078;27;51136;-46
2022/10/18 09:29:40;;;;;;;;;6.00;6.00;;;;;-147.17;100.00;24454.31;5045026;27;50950;-47
2022/10/18 09:32:13;;;;;;;;;7.33;6.67;;;;;-147.17;100.00;32180.75;5038186;27;51946;-46
2022/10/18 09:34:59;;;;;;;;;7.00;7.00;;;;;-147.17;100.00;28870.63;5037458;27;51113;-46
2022/10/18 09:37:31;;;;;;;;;4.33;4.00;;;;;-147.17;100.00;21832.69;5039427;27;51715;-47
2022/10/18 09:40:06;;;;;;;;;4.33;4.33;;;;;-147.17;100.00;6544.97;5041128;27;51345;-46
2022/10/18 09:43:05;;;;;;;;;6.00;6.00;;;;;-147.17;100.00;-14429.16;5076319;27;52847;-46
2022/10/18 09:45:36;;;;;;;;;6.00;6.00;;;;;-147.17;100.00;-15917.19;5035831;27;51069;-46
2022/10/18 09:48:24;;;;;;;;;6.33;6.00;;;;;-147.17;100.00;-15917.19;5028250;27;51144;-48
2022/10/18 09:50:56;;;;;;;;;5.67;5.67;;;;;-147.17;100.00;-15917.19;5045997;27;51468;-48
2022/10/18 09:53:51;;;;;;;;;6.00;5.67;;;;;-147.17;100.00;-15917.19;5048749;27;51155;-45
2022/10/18 09:56:25;;;;;;;;;9.00;7.00;;;;;-147.17;100.00;-15917.19;5031550;27;51459;-46
2022/10/18 09:58:50;;;;;;;;;6.00;6.00;;;;;-147.17;100.00;-15917.19;5034200;27;51346;-47
2022/10/18 10:01:23;;;;;;;;;7.00;7.00;;;;;-147.17;100.00;-15917.19;5052208;27;51158;-46
2022/10/18 10:03:48;;;;;;;;;7.00;6.33;;;;;-147.17;100.00;-15917.19;5065272;27;51053;-46
2022/10/18 10:06:14;;;;;;;;;6.00;6.00;;;;;-147.17;100.00;-15917.19;5031284;27;50865;-49
2022/10/18 10:09:28;;;;;;;;;5.00;5.00;;;;;-147.17;100.00;-15917.19;5027432;27;51101;-47
2022/10/18 10:11:55;;;;;;;;;6.00;6.00;;;;;-147.17;100.00;-15917.19;5060337;27;51234;-46
2022/10/18 10:14:25;;;;;;;;;6.00;6.00;;;;;-147.17;100.00;-15917.19;5033524;27;53276;-46
2022/10/18 10:16:50;;;;;;;;;4.33;4.33;;;;;-147.17;100.00;-15917.19;5040414;27;51820;-46
2022/10/18 10:19:18;;;;;;;;;5.00;5.00;;;;;-147.17;100.00;-15917.19;5069890;27;51180;-47
2022/10/18 10:21:46;;;;;;;;;5.67;5.00;;;;;-147.17;100.00;-15917.19;5036150;27;51004;-48
2022/10/18 10:24:22;;;;;;;;;2.00;2.00;;;;;-147.17;100.00;-15917.19;5034963;27;50986;-48
2022/10/18 10:26:48;;;;;;;;;4.00;3.00;;;;;-147.17;100.00;-15917.19;5034862;27;51089;-52
2022/10/18 10:29:45;;;;;;;;;2.00;2.00;;;;;-147.17;100.00;-15917.19;5047193;27;51100;-46
2022/10/18 10:32:16;;;;;;;;;5.33;5.00;;;;;-147.17;100.00;-15917.19;5029692;27;51140;-47
2022/10/18 10:34:42;;;;;;;;;3.67;3.67;;;;;-147.17;100.00;-15917.19;5061461;27;51136;-47
2022/10/18 10:37:34;;;;;;;;;4.00;3.67;;;;;-147.17;100.00;-15917.19;5057065;27;51294;-48
2022/10/18 10:40:30;;;;;;;;;10.67;10.00;;;;;-147.17;100.00;-15917.19;5049206;27;50896;-47
2022/10/18 10:43:02;;;;;;;;;5.67;5.67;;;;;-147.17;100.00;-15917.19;5036806;27;51145;-46
2022/10/18 10:45:31;;;;;;;;;6.00;4.00;;;;;-147.17;100.00;-15917.19;5072350;27;51865;-47
2022/10/18 10:48:04;;;;;;;;;5.00;5.00;;;;;-147.17;100.00;-15917.19;5028285;27;50917;-47
2022/10/18 10:50:30;;;;;;;;;1.00;1.00;;;;;-147.17;100.00;-15917.19;5036170;27;51837;-48
2022/10/18 10:52:55;;;;;;;;;3.00;3.00;;;;;-147.17;100.00;-15917.19;5049965;27;52192;-47
2022/10/18 10:55:32;;;;;;;;;3.00;3.00;;;;;-147.17;100.00;-15917.19;5059005;27;51233;-47
2022/10/18 10:57:58;;;;;;;;;3.00;3.00;;;;;-147.17;100.00;-15917.19;5027122;27;51243;-47
2022/10/18 11:00:49;;;;;;;;;2.00;2.00;;;;;-147.17;100.00;-15917.19;5079671;27;51208;-47